createdAt,value
2023-09-04T00:00:28.430Z,13.02
2023-09-04T00:03:28.303Z,22.77
2023-09-04T00:06:26.498Z,16.98
2023-09-04T00:09:24.473Z,14.80
2023-09-04T00:12:22.440Z,10.55
2023-09-04T00:15:20.516Z,11.85
2023-09-04T00:18:18.605Z,11.48
2023-09-04T00:21:17.301Z,11.05
2023-09-04T00:24:15.239Z,8.70
2023-09-04T00:27:13.059Z,7.65
2023-09-04T00:30:11.610Z,5.70
2023-09-04T00:33:09.490Z,6.00
2023-09-04T00:36:07.514Z,5.50
2023-09-04T00:39:05.537Z,4.88
2023-09-04T00:42:03.458Z,4.72
2023-09-04T00:45:02.520Z,5.13
2023-09-04T00:48:00.727Z,4.85
2023-09-04T00:51:00.440Z,5.10
2023-09-04T00:53:58.708Z,5.95
2023-09-04T00:56:56.810Z,5.47
2023-09-04T00:59:55.016Z,5.40
2023-09-04T01:02:53.249Z,5.28
2023-09-04T01:05:51.387Z,5.35
2023-09-04T01:08:49.356Z,5.05
2023-09-04T01:11:55.561Z,5.75
2023-09-04T01:14:57.607Z,5.30
2023-09-04T01:17:55.730Z,4.97
2023-09-04T01:21:02.490Z,4.80
2023-09-04T01:24:00.599Z,4.97
2023-09-04T01:27:32.847Z,5.20
2023-09-04T01:30:46.644Z,4.70
2023-09-04T01:33:51.612Z,5.30
2023-09-04T01:36:52.187Z,4.95
2023-09-04T01:39:51.176Z,4.85
2023-09-04T01:42:49.503Z,5.15
2023-09-04T01:45:47.383Z,5.20
2023-09-04T01:48:45.345Z,5.05
2023-09-04T01:51:43.227Z,4.93
2023-09-04T01:54:41.145Z,4.95
2023-09-04T01:57:39.070Z,5.93
2023-09-04T02:00:37.142Z,5.03
2023-09-04T02:03:35.286Z,4.97
2023-09-04T02:06:33.655Z,4.80
2023-09-04T02:09:31.647Z,5.18
2023-09-04T02:12:29.573Z,5.20
2023-09-04T02:15:27.487Z,5.63
2023-09-04T02:18:25.686Z,5.13
2023-09-04T02:21:23.724Z,5.90
2023-09-04T02:24:22.618Z,6.25
2023-09-04T02:27:20.414Z,5.57
2023-09-04T02:30:18.750Z,5.45
2023-09-04T02:33:17.078Z,5.82
2023-09-04T02:36:15.170Z,5.68
2023-09-04T02:39:12.930Z,6.38
2023-09-04T02:42:11.391Z,6.93
2023-09-04T02:45:10.636Z,6.22
2023-09-04T02:48:08.975Z,6.53
2023-09-04T02:51:06.888Z,6.25
2023-09-04T02:54:04.899Z,6.35
2023-09-04T02:57:02.689Z,6.32
2023-09-04T03:00:02.547Z,5.90
2023-09-04T03:03:00.422Z,6.20
2023-09-04T03:05:58.396Z,9.13
2023-09-04T03:08:56.225Z,10.60
2023-09-04T03:11:57.266Z,9.90
2023-09-04T03:14:57.913Z,9.82
2023-09-04T03:17:55.949Z,8.50
2023-09-04T03:20:54.540Z,8.43
2023-09-04T03:23:52.925Z,9.18
2023-09-04T03:26:51.403Z,7.78
2023-09-04T03:29:49.328Z,9.02
2023-09-04T03:32:47.180Z,10.30
2023-09-04T03:35:45.514Z,9.25
2023-09-04T03:38:43.436Z,9.00
2023-09-04T03:41:41.404Z,8.73
2023-09-04T03:44:39.232Z,8.63
2023-09-04T03:47:37.089Z,8.35
2023-09-04T03:50:37.390Z,7.65
2023-09-04T03:53:35.322Z,7.88
2023-09-04T03:56:33.656Z,7.47
2023-09-04T03:59:31.559Z,7.43
2023-09-04T04:02:29.501Z,7.30
2023-09-04T04:05:27.391Z,8.70
2023-09-04T04:08:26.178Z,9.15
2023-09-04T04:11:24.438Z,8.70
2023-09-04T04:14:22.240Z,9.25
2023-09-04T04:17:20.120Z,8.30
2023-09-04T04:20:19.165Z,6.50
2023-09-04T04:23:17.084Z,6.22
2023-09-04T04:26:14.921Z,5.53
2023-09-04T04:29:12.910Z,5.35
2023-09-04T04:32:10.722Z,5.15
2023-09-04T04:35:10.094Z,4.65
2023-09-04T04:38:11.371Z,4.70
2023-09-04T04:41:09.721Z,4.40
2023-09-04T04:44:07.721Z,4.20
2023-09-04T04:47:05.808Z,4.97
2023-09-04T04:50:04.151Z,5.50
2023-09-04T04:53:02.052Z,5.10
2023-09-04T04:56:01.902Z,4.63
2023-09-04T04:58:59.803Z,5.18
2023-09-04T05:01:59.821Z,4.95
2023-09-04T05:04:58.209Z,5.20
2023-09-04T05:07:55.965Z,4.60
2023-09-04T05:11:04.681Z,5.05
2023-09-04T05:14:02.420Z,4.72
2023-09-04T05:17:00.396Z,5.68
2023-09-04T05:19:58.172Z,5.22
2023-09-04T05:22:56.072Z,4.60
2023-09-04T05:25:55.100Z,5.00
2023-09-04T05:28:52.961Z,5.40
2023-09-04T05:31:54.192Z,4.97
2023-09-04T05:34:55.571Z,5.90
2023-09-04T05:37:53.350Z,4.93
2023-09-04T05:40:56.842Z,5.25
2023-09-04T05:43:54.644Z,5.57
2023-09-04T05:46:54.241Z,4.75
2023-09-04T05:49:52.016Z,4.95
2023-09-04T05:52:49.875Z,5.53
2023-09-04T05:56:04.297Z,6.00
2023-09-04T05:59:02.567Z,5.30
2023-09-04T06:02:00.342Z,5.03
2023-09-04T06:04:58.236Z,4.68
2023-09-04T06:07:57.931Z,5.60
2023-09-04T06:10:56.820Z,4.90
2023-09-04T06:13:54.616Z,5.75
2023-09-04T06:16:52.667Z,5.82
2023-09-04T06:19:50.491Z,5.90
2023-09-04T06:22:48.355Z,5.85
2023-09-04T06:25:47.713Z,5.32
2023-09-04T06:28:45.611Z,5.80
2023-09-04T06:31:43.481Z,6.55
2023-09-04T06:34:41.375Z,6.03
2023-09-04T06:37:39.151Z,5.63
2023-09-04T06:40:39.040Z,5.57
2023-09-04T06:43:38.640Z,6.20
2023-09-04T06:46:36.578Z,6.15
2023-09-04T06:49:34.499Z,5.38
2023-09-04T06:52:32.403Z,5.65
2023-09-04T06:55:30.633Z,5.47
2023-09-04T06:58:28.701Z,5.50
2023-09-04T07:01:26.608Z,5.78
2023-09-04T07:04:24.794Z,5.20
2023-09-04T07:07:22.584Z,5.47
2023-09-04T07:10:20.581Z,5.00
2023-09-04T07:13:20.092Z,5.63
2023-09-04T07:16:31.292Z,5.18
2023-09-04T07:19:35.919Z,5.32
2023-09-04T07:22:33.827Z,5.18
2023-09-04T07:25:32.822Z,5.45
2023-09-04T07:28:30.743Z,5.45
2023-09-04T07:31:30.229Z,5.25
2023-09-04T07:34:28.229Z,4.38
2023-09-04T07:37:28.532Z,5.07
2023-09-04T07:40:26.501Z,5.15
2023-09-04T07:43:24.733Z,5.85
2023-09-04T07:46:23.538Z,6.38
2023-09-04T07:49:21.322Z,6.28
2023-09-04T07:52:19.192Z,4.88
2023-09-04T07:55:17.090Z,5.30
2023-09-04T07:58:15.367Z,4.20
2023-09-04T08:01:15.437Z,4.53
2023-09-04T08:04:15.253Z,4.55
2023-09-04T08:07:13.054Z,4.25
2023-09-04T08:10:11.348Z,5.03
2023-09-04T08:13:15.961Z,4.60
2023-09-04T08:16:13.902Z,5.15
2023-09-04T08:19:11.739Z,5.95
2023-09-04T08:22:09.601Z,5.40
2023-09-04T08:25:07.841Z,5.10
2023-09-04T08:28:06.489Z,5.00
2023-09-04T08:31:05.335Z,4.43
2023-09-04T08:34:04.679Z,4.30
2023-09-04T08:37:02.466Z,4.05
2023-09-04T08:40:00.353Z,4.72
2023-09-04T08:42:59.458Z,4.90
2023-09-04T08:45:58.422Z,5.95
2023-09-04T08:48:58.160Z,4.47
2023-09-04T08:51:57.818Z,4.75
2023-09-04T08:54:56.475Z,4.43
2023-09-04T08:57:55.798Z,4.55
2023-09-04T09:00:54.502Z,5.30
2023-09-04T09:03:52.812Z,6.53
2023-09-04T09:06:53.292Z,6.10
2023-09-04T09:09:53.822Z,6.60
2023-09-04T09:12:51.727Z,7.43
2023-09-04T09:15:49.920Z,7.22
2023-09-04T09:18:49.836Z,6.85
2023-09-04T09:21:47.731Z,6.85
2023-09-04T09:25:01.788Z,6.30
2023-09-04T09:28:02.178Z,5.20
2023-09-04T09:31:00.716Z,5.50
2023-09-04T09:33:59.501Z,5.60
2023-09-04T09:36:59.920Z,5.95
2023-09-04T09:39:57.999Z,5.50
2023-09-04T09:42:55.962Z,5.97
2023-09-04T09:45:53.920Z,6.00
2023-09-04T09:48:52.238Z,5.80
2023-09-04T09:51:54.841Z,5.45
2023-09-04T09:54:52.618Z,7.10
2023-09-04T09:57:52.952Z,5.60
2023-09-04T10:00:50.937Z,5.90
2023-09-04T10:03:49.380Z,6.15
2023-09-04T10:06:48.799Z,7.25
2023-09-04T10:09:48.422Z,6.40
2023-09-04T10:13:01.635Z,6.10
2023-09-04T10:16:03.070Z,5.90
2023-09-04T10:19:04.280Z,5.00
2023-09-04T10:22:05.883Z,5.10
2023-09-04T10:25:28.368Z,4.78
2023-09-04T10:28:43.870Z,4.50
2023-09-04T10:31:43.103Z,4.22
2023-09-04T10:34:42.160Z,4.20
2023-09-04T10:37:40.090Z,3.50
2023-09-04T10:40:39.117Z,3.85
2023-09-04T10:43:41.184Z,3.20
2023-09-04T10:46:41.997Z,3.95
2023-09-04T10:49:39.913Z,3.15
2023-09-04T10:52:45.214Z,2.97
2023-09-04T10:55:43.000Z,3.28
2023-09-04T10:59:04.126Z,3.50
2023-09-04T11:02:30.776Z,3.15
2023-09-04T11:05:29.012Z,3.35
2023-09-04T11:08:28.858Z,3.50
2023-09-04T11:11:28.052Z,2.90
2023-09-04T11:14:34.471Z,3.35
2023-09-04T11:17:34.703Z,2.80
2023-09-04T11:20:46.788Z,3.00
2023-09-04T11:23:45.155Z,3.50
2023-09-04T11:26:43.016Z,2.80
2023-09-04T11:29:41.094Z,3.60
2023-09-04T11:32:40.447Z,4.30
2023-09-04T11:35:38.887Z,6.78
2023-09-04T11:38:38.310Z,13.45
2023-09-04T11:41:36.339Z,8.85
2023-09-04T11:44:34.161Z,7.18
2023-09-04T11:47:32.473Z,5.70
2023-09-04T11:50:30.454Z,3.08
2023-09-04T11:53:28.718Z,3.35
2023-09-04T11:56:26.882Z,5.05
2023-09-04T11:59:24.854Z,3.38
2023-09-04T12:02:22.891Z,3.05
2023-09-04T12:05:22.043Z,3.05
2023-09-04T12:08:20.815Z,2.60
2023-09-04T12:11:19.347Z,3.03
2023-09-04T12:14:17.870Z,3.30
2023-09-04T12:17:16.024Z,3.13
2023-09-04T12:20:17.792Z,2.92
2023-09-04T12:23:16.061Z,2.78
2023-09-04T12:26:15.193Z,3.22
2023-09-04T12:29:13.973Z,2.53
2023-09-04T12:32:14.615Z,2.78
2023-09-04T12:35:12.543Z,2.17
2023-09-04T12:38:12.032Z,2.30
2023-09-04T12:41:10.739Z,2.53
2023-09-04T12:44:08.576Z,2.33
2023-09-04T12:47:06.509Z,2.67
2023-09-04T12:50:04.800Z,2.83
2023-09-04T12:53:02.758Z,2.30
2023-09-04T12:56:00.641Z,2.83
2023-09-04T12:58:58.586Z,2.70
2023-09-04T13:01:56.557Z,2.53
2023-09-04T13:04:54.571Z,2.70
2023-09-04T13:07:52.422Z,2.88
2023-09-04T13:10:50.388Z,2.90
2023-09-04T13:13:48.376Z,3.10
2023-09-04T13:16:46.468Z,3.22
2023-09-04T13:19:44.363Z,3.25
2023-09-04T13:22:43.702Z,3.00
2023-09-04T13:25:41.476Z,3.35
2023-09-04T13:28:39.394Z,3.58
2023-09-04T13:31:37.187Z,3.92
2023-09-04T13:34:35.180Z,3.92
2023-09-04T13:37:33.383Z,4.38
2023-09-04T13:40:33.063Z,4.00
2023-09-04T13:43:30.837Z,4.13
2023-09-04T13:46:28.747Z,4.45
2023-09-04T13:49:26.661Z,4.38
2023-09-04T13:52:25.818Z,4.18
2023-09-04T13:55:23.662Z,5.10
2023-09-04T13:58:21.660Z,4.68
2023-09-04T14:01:19.656Z,5.55
2023-09-04T14:04:18.154Z,5.18
2023-09-04T14:07:16.276Z,5.63
2023-09-04T14:10:14.577Z,5.25
2023-09-04T14:13:12.438Z,5.25
2023-09-04T14:16:10.383Z,5.22
2023-09-04T14:19:08.285Z,4.88
2023-09-04T14:22:06.265Z,5.07
2023-09-04T14:25:04.232Z,4.75
2023-09-04T14:28:02.234Z,4.97
2023-09-04T14:31:00.092Z,5.53
2023-09-04T14:33:58.218Z,5.40
2023-09-04T14:37:16.802Z,6.05
2023-09-04T14:40:14.719Z,6.50
2023-09-04T14:43:13.704Z,6.15
2023-09-04T14:46:11.916Z,7.57
2023-09-04T14:49:12.029Z,9.48
2023-09-04T14:52:09.911Z,11.77
2023-09-04T14:55:08.257Z,9.02
2023-09-04T14:58:06.679Z,8.27
2023-09-04T15:01:15.243Z,7.20
2023-09-04T15:04:14.754Z,6.45
2023-09-04T15:07:12.606Z,6.07
2023-09-04T15:10:10.953Z,5.43
2023-09-04T15:13:08.812Z,5.95
2023-09-04T15:16:07.747Z,5.10
2023-09-04T15:19:05.708Z,4.90
2023-09-04T15:22:04.467Z,5.95
2023-09-04T15:25:02.389Z,4.88
2023-09-04T15:28:01.073Z,5.30
2023-09-04T15:30:59.649Z,4.90
2023-09-04T15:33:58.080Z,4.65
2023-09-04T15:36:55.923Z,5.35
2023-09-04T15:39:54.784Z,4.30
2023-09-04T15:42:52.587Z,3.90
2023-09-04T15:45:53.469Z,4.13
2023-09-04T15:48:51.394Z,5.63
2023-09-04T15:51:49.278Z,4.82
2023-09-04T15:54:47.037Z,4.05
2023-09-04T15:57:44.976Z,4.13
2023-09-04T16:00:42.820Z,3.75
2023-09-04T16:03:40.842Z,4.03
2023-09-04T16:06:38.646Z,4.88
2023-09-04T16:09:37.228Z,4.25
2023-09-04T16:12:35.077Z,3.97
2023-09-04T16:15:32.972Z,4.50
2023-09-04T16:18:31.111Z,4.50
2023-09-04T16:21:30.600Z,4.25
2023-09-04T16:24:28.419Z,3.67
2023-09-04T16:27:27.119Z,3.85
2023-09-04T16:30:24.943Z,4.00
2023-09-04T16:33:23.053Z,3.63
2023-09-04T16:36:20.962Z,3.72
2023-09-04T16:39:19.200Z,3.88
2023-09-04T16:42:18.767Z,3.90
2023-09-04T16:45:16.784Z,3.83
2023-09-04T16:48:14.793Z,3.92
2023-09-04T16:51:12.714Z,3.58
2023-09-04T16:54:10.494Z,3.53
2023-09-04T16:57:08.414Z,3.67
2023-09-04T17:00:09.948Z,3.47
2023-09-04T17:03:07.951Z,4.00
2023-09-04T17:06:06.294Z,3.47
2023-09-04T17:09:05.291Z,3.10
2023-09-04T17:12:03.077Z,3.60
2023-09-04T17:15:00.976Z,3.53
2023-09-04T17:18:00.891Z,3.20
2023-09-04T17:20:58.962Z,3.28
2023-09-04T17:23:57.045Z,3.22
2023-09-04T17:26:55.006Z,3.65
2023-09-04T17:29:54.135Z,3.03
2023-09-04T17:32:55.407Z,3.30
2023-09-04T17:35:53.219Z,3.35
2023-09-04T17:38:51.122Z,3.70
2023-09-04T17:41:49.069Z,4.13
2023-09-04T17:44:47.039Z,4.50
2023-09-04T17:47:44.945Z,5.47
2023-09-04T17:50:44.259Z,4.75
2023-09-04T17:53:42.108Z,4.72
2023-09-04T17:56:40.049Z,3.30
2023-09-04T17:59:38.254Z,4.22
2023-09-04T18:02:36.281Z,3.42
2023-09-04T18:05:34.210Z,3.63
2023-09-04T18:08:32.191Z,3.30
2023-09-04T18:11:30.107Z,3.08
2023-09-04T18:14:30.248Z,2.88
2023-09-04T18:17:29.108Z,2.80
2023-09-04T18:20:27.137Z,3.03
2023-09-04T18:23:25.034Z,3.35
2023-09-04T18:26:23.053Z,3.20
2023-09-04T18:29:20.878Z,2.90
2023-09-04T18:32:18.877Z,3.08
2023-09-04T18:35:16.764Z,3.20
2023-09-04T18:38:15.175Z,3.20
2023-09-04T18:41:14.798Z,3.08
2023-09-04T18:44:12.733Z,2.80
2023-09-04T18:47:13.137Z,3.00
2023-09-04T18:50:11.487Z,2.92
2023-09-04T18:53:09.256Z,3.10
2023-09-04T18:56:07.182Z,2.70
2023-09-04T18:59:05.025Z,2.70
2023-09-04T19:02:03.242Z,2.60
2023-09-04T19:05:03.803Z,2.72
2023-09-04T19:08:01.825Z,3.00
2023-09-04T19:11:02.714Z,2.67
2023-09-04T19:14:00.671Z,2.97
2023-09-04T19:16:58.531Z,2.97
2023-09-04T19:19:56.470Z,2.85
2023-09-04T19:22:54.269Z,3.10
2023-09-04T19:25:52.257Z,2.88
2023-09-04T19:28:51.485Z,2.83
2023-09-04T19:31:50.865Z,2.72
2023-09-04T19:34:48.721Z,2.50
2023-09-04T19:37:46.689Z,2.72
2023-09-04T19:40:44.578Z,3.00
2023-09-04T19:43:42.553Z,3.45
2023-09-04T19:46:40.435Z,2.80
2023-09-04T19:49:38.594Z,3.05
2023-09-04T19:52:37.534Z,2.70
2023-09-04T19:55:35.713Z,2.50
2023-09-04T19:58:33.737Z,2.60
2023-09-04T20:01:31.801Z,2.50
2023-09-04T20:04:29.685Z,2.92
2023-09-04T20:07:29.536Z,2.50
2023-09-04T20:10:27.292Z,2.80
2023-09-04T20:13:27.041Z,2.83
2023-09-04T20:16:25.072Z,3.25
2023-09-04T20:19:23.044Z,2.80
2023-09-04T20:22:21.459Z,2.90
2023-09-04T20:25:19.443Z,3.08
2023-09-04T20:28:17.382Z,3.10
2023-09-04T20:31:17.114Z,3.42
2023-09-04T20:34:14.927Z,3.15
2023-09-04T20:37:15.240Z,3.08
2023-09-04T20:40:13.472Z,3.15
2023-09-04T20:43:11.696Z,3.03
2023-09-04T20:46:09.495Z,2.80
2023-09-04T20:49:07.406Z,3.10
2023-09-04T20:52:05.517Z,3.00
2023-09-04T20:55:03.618Z,2.70
2023-09-04T20:58:01.847Z,2.55
2023-09-04T21:00:59.799Z,2.53
2023-09-04T21:04:00.148Z,2.83
2023-09-04T21:06:58.296Z,2.65
2023-09-04T21:09:56.064Z,2.90
2023-09-04T21:13:09.305Z,2.90
2023-09-04T21:16:22.537Z,3.05
2023-09-04T21:19:35.893Z,2.92
2023-09-04T21:22:49.035Z,2.70
2023-09-04T21:26:02.147Z,2.28
2023-09-04T21:29:15.355Z,2.75
2023-09-04T21:32:28.486Z,3.33
2023-09-04T21:35:41.688Z,3.03
2023-09-04T21:38:55.086Z,2.72
2023-09-04T21:42:08.197Z,2.85
2023-09-04T21:45:22.190Z,2.67
2023-09-04T21:48:35.670Z,2.60
2023-09-04T21:51:48.966Z,3.05
2023-09-04T21:55:02.699Z,2.83
2023-09-04T21:58:16.071Z,2.53
2023-09-04T22:01:29.325Z,2.88
2023-09-04T22:04:42.638Z,2.30
2023-09-04T22:07:56.080Z,2.50
2023-09-04T22:11:09.426Z,2.88
2023-09-04T22:14:22.613Z,2.72
2023-09-04T22:17:36.063Z,2.50
2023-09-04T22:20:49.393Z,2.97
2023-09-04T22:24:02.777Z,2.72
2023-09-04T22:27:15.957Z,2.90
2023-09-04T22:30:30.051Z,2.67
2023-09-04T22:33:43.257Z,2.70
2023-09-04T22:36:56.696Z,2.40
2023-09-04T22:40:09.849Z,2.70
2023-09-04T22:43:23.529Z,2.90
2023-09-04T22:46:36.923Z,2.70
2023-09-04T22:49:50.338Z,3.03
2023-09-04T22:53:07.111Z,2.45
2023-09-04T22:56:20.995Z,2.78
2023-09-04T22:59:34.134Z,2.90
2023-09-04T23:02:47.545Z,2.88
2023-09-04T23:06:00.986Z,2.80
2023-09-04T23:09:14.328Z,2.50
2023-09-04T23:12:27.490Z,2.70
2023-09-04T23:15:40.906Z,3.38
2023-09-04T23:18:54.071Z,2.80
2023-09-04T23:21:52.032Z,2.80
2023-09-04T23:24:52.205Z,2.45
2023-09-04T23:27:52.469Z,2.65
2023-09-04T23:31:01.802Z,3.38
2023-09-04T23:34:01.615Z,2.88
2023-09-04T23:37:15.629Z,2.50
2023-09-04T23:40:29.030Z,2.58
2023-09-04T23:43:42.452Z,2.50
2023-09-04T23:46:40.411Z,2.50
2023-09-04T23:49:38.362Z,2.80
2023-09-04T23:52:37.025Z,2.80
2023-09-04T23:55:38.127Z,2.55
2023-09-04T23:58:36.481Z,2.78
